sensor_id;sensor_type;location;lat;lon;timestamp;P1;durP1;ratioP1;P2;durP2;ratioP2
54241;SDS011;40156;51.080;17.082;2023-06-22T00:02:10;12.55;;;10.23;;
54241;SDS011;40156;51.080;17.082;2023-06-22T00:04:38;15.60;;;10.40;;
54241;SDS011;40156;51.080;17.082;2023-06-22T00:07:06;15.65;;;10.90;;
54241;SDS011;40156;51.080;17.082;2023-06-22T00:09:34;15.15;;;11.15;;
54241;SDS011;40156;51.080;17.082;2023-06-22T00:12:04;15.48;;;11.45;;
54241;SDS011;40156;51.080;17.082;2023-06-22T00:14:32;14.50;;;10.98;;
54241;SDS011;40156;51.080;17.082;2023-06-22T00:17:00;13.70;;;11.45;;
54241;SDS011;40156;51.080;17.082;2023-06-22T00:19:28;13.48;;;10.38;;
54241;SDS011;40156;51.080;17.082;2023-06-22T00:21:57;12.82;;;10.13;;
54241;SDS011;40156;51.080;17.082;2023-06-22T00:24:25;13.77;;;10.90;;
54241;SDS011;40156;51.080;17.082;2023-06-22T00:26:53;13.95;;;10.45;;
54241;SDS011;40156;51.080;17.082;2023-06-22T00:29:21;13.27;;;11.00;;
54241;SDS011;40156;51.080;17.082;2023-06-22T00:31:51;14.38;;;10.60;;
54241;SDS011;40156;51.080;17.082;2023-06-22T00:34:19;16.25;;;11.82;;
54241;SDS011;40156;51.080;17.082;2023-06-22T00:36:48;14.63;;;11.05;;
54241;SDS011;40156;51.080;17.082;2023-06-22T00:39:16;14.90;;;10.45;;
54241;SDS011;40156;51.080;17.082;2023-06-22T00:41:44;13.68;;;10.40;;
54241;SDS011;40156;51.080;17.082;2023-06-22T00:44:12;13.95;;;11.13;;
54241;SDS011;40156;51.080;17.082;2023-06-22T00:46:40;14.50;;;10.43;;
54241;SDS011;40156;51.080;17.082;2023-06-22T00:49:08;12.95;;;9.93;;
54241;SDS011;40156;51.080;17.082;2023-06-22T00:51:37;15.98;;;13.02;;
54241;SDS011;40156;51.080;17.082;2023-06-22T00:54:05;13.32;;;11.05;;
54241;SDS011;40156;51.080;17.082;2023-06-22T00:56:33;13.77;;;10.90;;
54241;SDS011;40156;51.080;17.082;2023-06-22T00:59:01;13.55;;;10.35;;
54241;SDS011;40156;51.080;17.082;2023-06-22T01:01:30;12.15;;;10.63;;
54241;SDS011;40156;51.080;17.082;2023-06-22T01:03:58;13.90;;;10.73;;
54241;SDS011;40156;51.080;17.082;2023-06-22T01:06:29;14.35;;;10.57;;
54241;SDS011;40156;51.080;17.082;2023-06-22T01:09:27;12.63;;;9.80;;
54241;SDS011;40156;51.080;17.082;2023-06-22T01:11:59;13.30;;;9.82;;
54241;SDS011;40156;51.080;17.082;2023-06-22T01:14:42;12.88;;;10.38;;
54241;SDS011;40156;51.080;17.082;2023-06-22T01:17:15;13.93;;;10.60;;
54241;SDS011;40156;51.080;17.082;2023-06-22T01:19:45;12.98;;;10.55;;
54241;SDS011;40156;51.080;17.082;2023-06-22T01:22:17;14.02;;;10.75;;
54241;SDS011;40156;51.080;17.082;2023-06-22T01:24:54;12.45;;;9.82;;
54241;SDS011;40156;51.080;17.082;2023-06-22T01:30:19;14.20;;;10.15;;
54241;SDS011;40156;51.080;17.082;2023-06-22T01:32:48;17.02;;;11.02;;
54241;SDS011;40156;51.080;17.082;2023-06-22T01:35:17;16.38;;;11.15;;
54241;SDS011;40156;51.080;17.082;2023-06-22T01:37:47;14.75;;;11.48;;
54241;SDS011;40156;51.080;17.082;2023-06-22T01:40:16;14.25;;;11.20;;
54241;SDS011;40156;51.080;17.082;2023-06-22T01:42:46;14.38;;;11.57;;
54241;SDS011;40156;51.080;17.082;2023-06-22T01:45:15;14.95;;;10.60;;
54241;SDS011;40156;51.080;17.082;2023-06-22T01:47:45;16.20;;;11.55;;
54241;SDS011;40156;51.080;17.082;2023-06-22T01:50:13;13.80;;;11.02;;
54241;SDS011;40156;51.080;17.082;2023-06-22T01:52:42;13.68;;;11.27;;
54241;SDS011;40156;51.080;17.082;2023-06-22T01:55:10;15.90;;;11.18;;
54241;SDS011;40156;51.080;17.082;2023-06-22T01:57:38;15.35;;;11.65;;
54241;SDS011;40156;51.080;17.082;2023-06-22T02:00:07;13.48;;;11.05;;
54241;SDS011;40156;51.080;17.082;2023-06-22T02:05:25;13.63;;;11.25;;
54241;SDS011;40156;51.080;17.082;2023-06-22T02:08:06;14.50;;;10.93;;
54241;SDS011;40156;51.080;17.082;2023-06-22T02:10:41;16.75;;;11.52;;
54241;SDS011;40156;51.080;17.082;2023-06-22T02:13:11;15.18;;;10.57;;
54241;SDS011;40156;51.080;17.082;2023-06-22T02:15:41;16.27;;;11.68;;
54241;SDS011;40156;51.080;17.082;2023-06-22T02:18:10;20.25;;;11.60;;
54241;SDS011;40156;51.080;17.082;2023-06-22T02:20:39;15.38;;;10.90;;
54241;SDS011;40156;51.080;17.082;2023-06-22T02:23:07;14.98;;;11.20;;
54241;SDS011;40156;51.080;17.082;2023-06-22T02:25:36;15.65;;;10.82;;
54241;SDS011;40156;51.080;17.082;2023-06-22T02:28:04;15.40;;;11.02;;
54241;SDS011;40156;51.080;17.082;2023-06-22T02:30:32;15.93;;;11.35;;
54241;SDS011;40156;51.080;17.082;2023-06-22T02:33:00;14.50;;;11.55;;
54241;SDS011;40156;51.080;17.082;2023-06-22T02:35:29;13.68;;;11.55;;
54241;SDS011;40156;51.080;17.082;2023-06-22T02:37:58;16.88;;;11.30;;
54241;SDS011;40156;51.080;17.082;2023-06-22T02:40:27;15.60;;;11.40;;
54241;SDS011;40156;51.080;17.082;2023-06-22T02:42:57;19.80;;;11.88;;
54241;SDS011;40156;51.080;17.082;2023-06-22T02:45:25;16.63;;;12.35;;
54241;SDS011;40156;51.080;17.082;2023-06-22T02:47:53;19.02;;;12.35;;
54241;SDS011;40156;51.080;17.082;2023-06-22T02:50:21;17.67;;;12.85;;
54241;SDS011;40156;51.080;17.082;2023-06-22T02:52:50;19.00;;;12.40;;
54241;SDS011;40156;51.080;17.082;2023-06-22T02:55:18;18.02;;;12.68;;
54241;SDS011;40156;51.080;17.082;2023-06-22T02:57:46;15.32;;;12.15;;
54241;SDS011;40156;51.080;17.082;2023-06-22T03:00:14;18.63;;;12.68;;
54241;SDS011;40156;51.080;17.082;2023-06-22T03:02:43;18.35;;;12.52;;
54241;SDS011;40156;51.080;17.082;2023-06-22T03:05:12;16.70;;;12.80;;
54241;SDS011;40156;51.080;17.082;2023-06-22T03:10:12;17.25;;;12.68;;
54241;SDS011;40156;51.080;17.082;2023-06-22T03:12:42;16.05;;;12.18;;
54241;SDS011;40156;51.080;17.082;2023-06-22T03:15:11;21.73;;;12.73;;
54241;SDS011;40156;51.080;17.082;2023-06-22T03:17:40;19.35;;;12.70;;
54241;SDS011;40156;51.080;17.082;2023-06-22T03:20:09;18.42;;;13.15;;
54241;SDS011;40156;51.080;17.082;2023-06-22T03:22:38;19.67;;;12.50;;
54241;SDS011;40156;51.080;17.082;2023-06-22T03:25:08;20.00;;;11.55;;
54241;SDS011;40156;51.080;17.082;2023-06-22T03:27:37;19.88;;;12.95;;
54241;SDS011;40156;51.080;17.082;2023-06-22T03:30:06;19.13;;;12.18;;
54241;SDS011;40156;51.080;17.082;2023-06-22T03:32:36;16.85;;;11.52;;
54241;SDS011;40156;51.080;17.082;2023-06-22T03:35:05;16.50;;;11.77;;
54241;SDS011;40156;51.080;17.082;2023-06-22T03:37:34;18.88;;;11.93;;
54241;SDS011;40156;51.080;17.082;2023-06-22T03:40:01;16.90;;;12.32;;
54241;SDS011;40156;51.080;17.082;2023-06-22T03:42:29;15.07;;;11.52;;
54241;SDS011;40156;51.080;17.082;2023-06-22T03:44:56;17.00;;;12.18;;
54241;SDS011;40156;51.080;17.082;2023-06-22T03:47:24;16.00;;;11.63;;
54241;SDS011;40156;51.080;17.082;2023-06-22T03:49:51;17.13;;;11.48;;
54241;SDS011;40156;51.080;17.082;2023-06-22T03:52:19;13.27;;;11.25;;
54241;SDS011;40156;51.080;17.082;2023-06-22T03:54:46;14.02;;;11.45;;
54241;SDS011;40156;51.080;17.082;2023-06-22T03:57:13;15.27;;;11.18;;
54241;SDS011;40156;51.080;17.082;2023-06-22T03:59:41;16.58;;;11.13;;
54241;SDS011;40156;51.080;17.082;2023-06-22T04:02:08;16.25;;;11.23;;
54241;SDS011;40156;51.080;17.082;2023-06-22T04:04:36;17.42;;;10.88;;
54241;SDS011;40156;51.080;17.082;2023-06-22T04:07:04;14.38;;;10.73;;
54241;SDS011;40156;51.080;17.082;2023-06-22T04:09:32;17.00;;;11.35;;
54241;SDS011;40156;51.080;17.082;2023-06-22T04:12:00;15.27;;;10.75;;
54241;SDS011;40156;51.080;17.082;2023-06-22T04:14:29;14.35;;;11.18;;
54241;SDS011;40156;51.080;17.082;2023-06-22T04:16:57;13.20;;;10.70;;
54241;SDS011;40156;51.080;17.082;2023-06-22T04:19:26;15.00;;;11.18;;
54241;SDS011;40156;51.080;17.082;2023-06-22T04:21:54;14.05;;;11.55;;
54241;SDS011;40156;51.080;17.082;2023-06-22T04:24:21;16.85;;;11.48;;
54241;SDS011;40156;51.080;17.082;2023-06-22T04:26:49;13.43;;;10.77;;
54241;SDS011;40156;51.080;17.082;2023-06-22T04:29:16;15.02;;;11.50;;
54241;SDS011;40156;51.080;17.082;2023-06-22T04:31:44;13.90;;;12.25;;
54241;SDS011;40156;51.080;17.082;2023-06-22T04:34:12;15.98;;;12.27;;
54241;SDS011;40156;51.080;17.082;2023-06-22T04:36:40;18.08;;;12.45;;
54241;SDS011;40156;51.080;17.082;2023-06-22T04:39:10;14.65;;;11.45;;
54241;SDS011;40156;51.080;17.082;2023-06-22T04:41:39;13.35;;;11.40;;
54241;SDS011;40156;51.080;17.082;2023-06-22T04:44:15;14.35;;;11.50;;
54241;SDS011;40156;51.080;17.082;2023-06-22T04:46:45;19.40;;;12.57;;
54241;SDS011;40156;51.080;17.082;2023-06-22T04:49:13;15.00;;;12.15;;
54241;SDS011;40156;51.080;17.082;2023-06-22T04:51:42;16.13;;;12.98;;
54241;SDS011;40156;51.080;17.082;2023-06-22T04:54:10;17.80;;;12.43;;
54241;SDS011;40156;51.080;17.082;2023-06-22T04:56:38;19.45;;;13.13;;
54241;SDS011;40156;51.080;17.082;2023-06-22T04:59:07;16.48;;;12.27;;
54241;SDS011;40156;51.080;17.082;2023-06-22T05:01:35;19.08;;;14.07;;
54241;SDS011;40156;51.080;17.082;2023-06-22T05:04:02;19.23;;;14.50;;
54241;SDS011;40156;51.080;17.082;2023-06-22T05:06:30;19.33;;;14.48;;
54241;SDS011;40156;51.080;17.082;2023-06-22T05:08:57;18.13;;;14.48;;
54241;SDS011;40156;51.080;17.082;2023-06-22T05:11:26;18.95;;;14.13;;
54241;SDS011;40156;51.080;17.082;2023-06-22T05:13:54;15.73;;;13.38;;
54241;SDS011;40156;51.080;17.082;2023-06-22T05:16:22;18.38;;;13.52;;
54241;SDS011;40156;51.080;17.082;2023-06-22T05:18:53;17.42;;;14.02;;
54241;SDS011;40156;51.080;17.082;2023-06-22T05:21:21;17.33;;;13.52;;
54241;SDS011;40156;51.080;17.082;2023-06-22T05:23:49;17.65;;;13.77;;
54241;SDS011;40156;51.080;17.082;2023-06-22T05:26:18;16.52;;;13.07;;
54241;SDS011;40156;51.080;17.082;2023-06-22T05:28:46;16.85;;;12.25;;
54241;SDS011;40156;51.080;17.082;2023-06-22T05:31:14;16.20;;;12.63;;
54241;SDS011;40156;51.080;17.082;2023-06-22T05:33:42;16.42;;;13.00;;
54241;SDS011;40156;51.080;17.082;2023-06-22T05:36:10;16.13;;;12.68;;
54241;SDS011;40156;51.080;17.082;2023-06-22T05:38:38;17.30;;;11.57;;
54241;SDS011;40156;51.080;17.082;2023-06-22T05:41:05;16.35;;;11.45;;
54241;SDS011;40156;51.080;17.082;2023-06-22T05:43:33;13.52;;;11.77;;
54241;SDS011;40156;51.080;17.082;2023-06-22T05:46:01;15.80;;;11.77;;
54241;SDS011;40156;51.080;17.082;2023-06-22T05:48:29;16.33;;;11.75;;
54241;SDS011;40156;51.080;17.082;2023-06-22T05:50:57;13.80;;;10.30;;
54241;SDS011;40156;51.080;17.082;2023-06-22T05:53:24;13.55;;;9.77;;
54241;SDS011;40156;51.080;17.082;2023-06-22T05:55:52;12.85;;;9.52;;
54241;SDS011;40156;51.080;17.082;2023-06-22T05:58:20;10.63;;;8.90;;
54241;SDS011;40156;51.080;17.082;2023-06-22T06:00:47;10.07;;;8.80;;
54241;SDS011;40156;51.080;17.082;2023-06-22T06:03:15;10.75;;;8.95;;
54241;SDS011;40156;51.080;17.082;2023-06-22T06:05:43;12.30;;;10.07;;
54241;SDS011;40156;51.080;17.082;2023-06-22T06:08:10;12.60;;;9.15;;
54241;SDS011;40156;51.080;17.082;2023-06-22T06:10:38;12.45;;;9.73;;
54241;SDS011;40156;51.080;17.082;2023-06-22T06:13:06;11.50;;;8.52;;
54241;SDS011;40156;51.080;17.082;2023-06-22T06:15:35;11.43;;;9.13;;
54241;SDS011;40156;51.080;17.082;2023-06-22T06:18:03;10.65;;;8.63;;
54241;SDS011;40156;51.080;17.082;2023-06-22T06:20:31;12.15;;;9.25;;
54241;SDS011;40156;51.080;17.082;2023-06-22T06:22:59;11.00;;;9.00;;
54241;SDS011;40156;51.080;17.082;2023-06-22T06:25:27;12.15;;;9.35;;
54241;SDS011;40156;51.080;17.082;2023-06-22T06:27:54;11.57;;;9.60;;
54241;SDS011;40156;51.080;17.082;2023-06-22T06:30:22;10.50;;;9.23;;
54241;SDS011;40156;51.080;17.082;2023-06-22T06:32:50;12.02;;;9.70;;
54241;SDS011;40156;51.080;17.082;2023-06-22T06:35:17;11.80;;;9.25;;
54241;SDS011;40156;51.080;17.082;2023-06-22T06:37:45;10.65;;;9.55;;
54241;SDS011;40156;51.080;17.082;2023-06-22T06:40:14;11.48;;;9.52;;
54241;SDS011;40156;51.080;17.082;2023-06-22T06:42:43;10.90;;;9.38;;
54241;SDS011;40156;51.080;17.082;2023-06-22T06:45:21;13.02;;;10.63;;
54241;SDS011;40156;51.080;17.082;2023-06-22T06:47:48;12.48;;;10.00;;
54241;SDS011;40156;51.080;17.082;2023-06-22T06:50:17;12.35;;;9.95;;
54241;SDS011;40156;51.080;17.082;2023-06-22T06:52:44;12.18;;;10.38;;
54241;SDS011;40156;51.080;17.082;2023-06-22T06:55:12;11.82;;;8.82;;
54241;SDS011;40156;51.080;17.082;2023-06-22T06:57:40;11.30;;;10.10;;
54241;SDS011;40156;51.080;17.082;2023-06-22T07:00:08;13.30;;;9.68;;
54241;SDS011;40156;51.080;17.082;2023-06-22T07:02:37;11.50;;;9.98;;
54241;SDS011;40156;51.080;17.082;2023-06-22T07:05:05;10.45;;;9.25;;
54241;SDS011;40156;51.080;17.082;2023-06-22T07:07:32;10.90;;;9.80;;
54241;SDS011;40156;51.080;17.082;2023-06-22T07:10:04;11.27;;;9.60;;
54241;SDS011;40156;51.080;17.082;2023-06-22T07:12:33;11.95;;;9.52;;
54241;SDS011;40156;51.080;17.082;2023-06-22T07:15:04;12.00;;;9.27;;
54241;SDS011;40156;51.080;17.082;2023-06-22T07:17:32;12.02;;;9.73;;
54241;SDS011;40156;51.080;17.082;2023-06-22T07:20:00;10.60;;;9.40;;
54241;SDS011;40156;51.080;17.082;2023-06-22T07:22:27;11.07;;;8.90;;
54241;SDS011;40156;51.080;17.082;2023-06-22T07:24:55;12.70;;;10.30;;
54241;SDS011;40156;51.080;17.082;2023-06-22T07:27:22;13.45;;;9.55;;
54241;SDS011;40156;51.080;17.082;2023-06-22T07:29:50;10.93;;;9.40;;
54241;SDS011;40156;51.080;17.082;2023-06-22T07:32:17;11.35;;;9.40;;
54241;SDS011;40156;51.080;17.082;2023-06-22T07:34:45;13.63;;;9.40;;
54241;SDS011;40156;51.080;17.082;2023-06-22T07:37:12;10.77;;;9.35;;
54241;SDS011;40156;51.080;17.082;2023-06-22T07:39:40;11.55;;;9.57;;
54241;SDS011;40156;51.080;17.082;2023-06-22T07:42:07;11.27;;;9.57;;
54241;SDS011;40156;51.080;17.082;2023-06-22T07:44:35;10.52;;;9.38;;
54241;SDS011;40156;51.080;17.082;2023-06-22T07:47:02;11.30;;;9.68;;
54241;SDS011;40156;51.080;17.082;2023-06-22T07:49:30;11.07;;;9.88;;
54241;SDS011;40156;51.080;17.082;2023-06-22T07:51:57;12.32;;;9.65;;
54241;SDS011;40156;51.080;17.082;2023-06-22T07:54:25;11.80;;;9.35;;
54241;SDS011;40156;51.080;17.082;2023-06-22T07:56:52;11.00;;;9.52;;
54241;SDS011;40156;51.080;17.082;2023-06-22T07:59:20;12.95;;;10.18;;
54241;SDS011;40156;51.080;17.082;2023-06-22T08:01:47;12.13;;;9.82;;
54241;SDS011;40156;51.080;17.082;2023-06-22T08:04:15;11.27;;;9.32;;
54241;SDS011;40156;51.080;17.082;2023-06-22T08:06:43;10.85;;;9.68;;
54241;SDS011;40156;51.080;17.082;2023-06-22T08:09:10;10.10;;;9.00;;
54241;SDS011;40156;51.080;17.082;2023-06-22T08:11:38;11.43;;;10.27;;
54241;SDS011;40156;51.080;17.082;2023-06-22T08:14:05;10.63;;;8.77;;
54241;SDS011;40156;51.080;17.082;2023-06-22T08:16:33;10.07;;;9.02;;
54241;SDS011;40156;51.080;17.082;2023-06-22T08:19:00;10.68;;;9.63;;
54241;SDS011;40156;51.080;17.082;2023-06-22T08:21:28;11.77;;;9.02;;
54241;SDS011;40156;51.080;17.082;2023-06-22T08:23:55;13.45;;;9.60;;
54241;SDS011;40156;51.080;17.082;2023-06-22T08:26:23;10.38;;;8.95;;
54241;SDS011;40156;51.080;17.082;2023-06-22T08:28:50;11.88;;;8.48;;
54241;SDS011;40156;51.080;17.082;2023-06-22T08:31:18;10.57;;;8.93;;
54241;SDS011;40156;51.080;17.082;2023-06-22T08:33:45;10.05;;;9.05;;
54241;SDS011;40156;51.080;17.082;2023-06-22T08:36:15;11.00;;;9.50;;
54241;SDS011;40156;51.080;17.082;2023-06-22T08:38:43;10.18;;;9.05;;
54241;SDS011;40156;51.080;17.082;2023-06-22T08:41:10;9.73;;;8.82;;
54241;SDS011;40156;51.080;17.082;2023-06-22T08:43:38;10.40;;;9.30;;
54241;SDS011;40156;51.080;17.082;2023-06-22T08:46:05;13.32;;;9.10;;
54241;SDS011;40156;51.080;17.082;2023-06-22T08:48:33;10.43;;;8.95;;
54241;SDS011;40156;51.080;17.082;2023-06-22T08:51:00;9.32;;;8.43;;
54241;SDS011;40156;51.080;17.082;2023-06-22T08:53:28;10.55;;;9.05;;
54241;SDS011;40156;51.080;17.082;2023-06-22T08:55:55;9.32;;;8.23;;
54241;SDS011;40156;51.080;17.082;2023-06-22T08:58:23;10.27;;;7.95;;
54241;SDS011;40156;51.080;17.082;2023-06-22T09:00:50;11.68;;;9.32;;
54241;SDS011;40156;51.080;17.082;2023-06-22T09:03:18;9.73;;;8.75;;
54241;SDS011;40156;51.080;17.082;2023-06-22T09:05:45;10.80;;;8.73;;
54241;SDS011;40156;51.080;17.082;2023-06-22T09:08:13;10.95;;;8.52;;
54241;SDS011;40156;51.080;17.082;2023-06-22T09:10:41;8.82;;;7.75;;
54241;SDS011;40156;51.080;17.082;2023-06-22T09:13:08;10.05;;;8.05;;
54241;SDS011;40156;51.080;17.082;2023-06-22T09:15:35;9.77;;;8.63;;
54241;SDS011;40156;51.080;17.082;2023-06-22T09:18:03;9.85;;;8.88;;
54241;SDS011;40156;51.080;17.082;2023-06-22T09:20:31;9.82;;;8.80;;
54241;SDS011;40156;51.080;17.082;2023-06-22T09:22:59;10.40;;;9.38;;
54241;SDS011;40156;51.080;17.082;2023-06-22T09:25:26;9.60;;;8.55;;
54241;SDS011;40156;51.080;17.082;2023-06-22T09:27:54;9.32;;;8.43;;
54241;SDS011;40156;51.080;17.082;2023-06-22T09:30:22;11.85;;;8.88;;
54241;SDS011;40156;51.080;17.082;2023-06-22T09:32:49;9.32;;;8.32;;
54241;SDS011;40156;51.080;17.082;2023-06-22T09:35:17;9.00;;;7.95;;
54241;SDS011;40156;51.080;17.082;2023-06-22T09:37:45;9.75;;;8.50;;
54241;SDS011;40156;51.080;17.082;2023-06-22T09:40:12;9.88;;;8.85;;
54241;SDS011;40156;51.080;17.082;2023-06-22T09:42:41;8.82;;;7.93;;
54241;SDS011;40156;51.080;17.082;2023-06-22T09:45:08;8.55;;;7.75;;
54241;SDS011;40156;51.080;17.082;2023-06-22T09:47:36;8.95;;;8.13;;
54241;SDS011;40156;51.080;17.082;2023-06-22T09:50:04;8.15;;;7.35;;
54241;SDS011;40156;51.080;17.082;2023-06-22T09:52:32;8.40;;;7.60;;
54241;SDS011;40156;51.080;17.082;2023-06-22T09:55:14;7.82;;;7.13;;
54241;SDS011;40156;51.080;17.082;2023-06-22T09:57:42;8.43;;;7.45;;
54241;SDS011;40156;51.080;17.082;2023-06-22T10:00:09;12.13;;;7.93;;
54241;SDS011;40156;51.080;17.082;2023-06-22T10:02:37;8.75;;;7.75;;
54241;SDS011;40156;51.080;17.082;2023-06-22T10:05:05;8.85;;;7.22;;
54241;SDS011;40156;51.080;17.082;2023-06-22T10:07:33;8.40;;;7.57;;
54241;SDS011;40156;51.080;17.082;2023-06-22T10:10:00;9.50;;;7.07;;
54241;SDS011;40156;51.080;17.082;2023-06-22T10:12:28;9.32;;;7.47;;
54241;SDS011;40156;51.080;17.082;2023-06-22T10:14:55;7.07;;;6.47;;
54241;SDS011;40156;51.080;17.082;2023-06-22T10:17:24;8.52;;;6.40;;
54241;SDS011;40156;51.080;17.082;2023-06-22T10:19:51;9.10;;;6.97;;
54241;SDS011;40156;51.080;17.082;2023-06-22T10:22:19;8.52;;;6.70;;
54241;SDS011;40156;51.080;17.082;2023-06-22T10:24:46;8.52;;;6.63;;
54241;SDS011;40156;51.080;17.082;2023-06-22T10:27:14;7.40;;;6.70;;
54241;SDS011;40156;51.080;17.082;2023-06-22T10:29:41;7.22;;;6.53;;
54241;SDS011;40156;51.080;17.082;2023-06-22T10:32:09;7.50;;;6.80;;
54241;SDS011;40156;51.080;17.082;2023-06-22T10:34:36;8.77;;;7.20;;
54241;SDS011;40156;51.080;17.082;2023-06-22T10:37:04;7.10;;;6.50;;
54241;SDS011;40156;51.080;17.082;2023-06-22T10:39:31;6.50;;;5.90;;
54241;SDS011;40156;51.080;17.082;2023-06-22T10:41:59;7.28;;;6.57;;
54241;SDS011;40156;51.080;17.082;2023-06-22T10:44:26;6.72;;;6.13;;
54241;SDS011;40156;51.080;17.082;2023-06-22T10:46:54;7.95;;;6.55;;
54241;SDS011;40156;51.080;17.082;2023-06-22T10:49:23;8.93;;;6.18;;
54241;SDS011;40156;51.080;17.082;2023-06-22T10:51:50;7.03;;;6.35;;
54241;SDS011;40156;51.080;17.082;2023-06-22T10:54:18;10.50;;;7.28;;
54241;SDS011;40156;51.080;17.082;2023-06-22T10:56:45;7.07;;;6.38;;
54241;SDS011;40156;51.080;17.082;2023-06-22T10:59:13;7.90;;;6.90;;
54241;SDS011;40156;51.080;17.082;2023-06-22T11:01:40;9.13;;;6.82;;
54241;SDS011;40156;51.080;17.082;2023-06-22T11:04:08;6.90;;;6.20;;
54241;SDS011;40156;51.080;17.082;2023-06-22T11:06:36;6.80;;;6.20;;
54241;SDS011;40156;51.080;17.082;2023-06-22T11:09:03;7.13;;;6.43;;
54241;SDS011;40156;51.080;17.082;2023-06-22T11:11:50;51.05;;;19.17;;
54241;SDS011;40156;51.080;17.082;2023-06-22T11:14:18;7.10;;;6.40;;
54241;SDS011;40156;51.080;17.082;2023-06-22T11:16:46;10.32;;;7.85;;
54241;SDS011;40156;51.080;17.082;2023-06-22T11:19:17;7.63;;;6.22;;
54241;SDS011;40156;51.080;17.082;2023-06-22T11:21:44;6.70;;;6.00;;
54241;SDS011;40156;51.080;17.082;2023-06-22T11:24:12;7.03;;;6.32;;
54241;SDS011;40156;51.080;17.082;2023-06-22T11:26:39;5.80;;;5.00;;
54241;SDS011;40156;51.080;17.082;2023-06-22T11:29:07;6.47;;;5.80;;
54241;SDS011;40156;51.080;17.082;2023-06-22T11:31:35;10.05;;;5.57;;
54241;SDS011;40156;51.080;17.082;2023-06-22T11:34:03;5.95;;;5.35;;
54241;SDS011;40156;51.080;17.082;2023-06-22T11:36:30;6.05;;;5.45;;
54241;SDS011;40156;51.080;17.082;2023-06-22T11:38:58;6.07;;;5.47;;
54241;SDS011;40156;51.080;17.082;2023-06-22T11:41:26;5.78;;;5.20;;
54241;SDS011;40156;51.080;17.082;2023-06-22T11:43:53;5.55;;;5.05;;
54241;SDS011;40156;51.080;17.082;2023-06-22T11:46:21;8.00;;;5.43;;
54241;SDS011;40156;51.080;17.082;2023-06-22T11:48:48;6.38;;;5.15;;
54241;SDS011;40156;51.080;17.082;2023-06-22T11:51:16;5.40;;;4.90;;
54241;SDS011;40156;51.080;17.082;2023-06-22T11:53:43;7.35;;;4.82;;
54241;SDS011;40156;51.080;17.082;2023-06-22T11:56:11;6.40;;;5.10;;
54241;SDS011;40156;51.080;17.082;2023-06-22T11:58:38;6.22;;;5.60;;
54241;SDS011;40156;51.080;17.082;2023-06-22T12:01:05;6.38;;;5.20;;
54241;SDS011;40156;51.080;17.082;2023-06-22T12:03:33;5.93;;;5.15;;
54241;SDS011;40156;51.080;17.082;2023-06-22T12:06:00;5.78;;;5.00;;
54241;SDS011;40156;51.080;17.082;2023-06-22T12:08:28;5.78;;;5.05;;
54241;SDS011;40156;51.080;17.082;2023-06-22T12:10:56;5.53;;;4.25;;
54241;SDS011;40156;51.080;17.082;2023-06-22T12:13:23;5.28;;;4.78;;
54241;SDS011;40156;51.080;17.082;2023-06-22T12:15:50;4.85;;;4.25;;
54241;SDS011;40156;51.080;17.082;2023-06-22T12:18:18;5.00;;;4.50;;
54241;SDS011;40156;51.080;17.082;2023-06-22T12:20:46;5.13;;;4.45;;
54241;SDS011;40156;51.080;17.082;2023-06-22T12:23:14;4.78;;;4.03;;
54241;SDS011;40156;51.080;17.082;2023-06-22T12:25:42;4.13;;;3.72;;
54241;SDS011;40156;51.080;17.082;2023-06-22T12:28:09;4.40;;;4.00;;
54241;SDS011;40156;51.080;17.082;2023-06-22T12:30:37;5.65;;;4.40;;
54241;SDS011;40156;51.080;17.082;2023-06-22T12:33:04;4.63;;;4.20;;
54241;SDS011;40156;51.080;17.082;2023-06-22T12:35:32;4.28;;;3.88;;
54241;SDS011;40156;51.080;17.082;2023-06-22T12:37:59;7.30;;;4.57;;
54241;SDS011;40156;51.080;17.082;2023-06-22T12:40:27;5.68;;;4.88;;
54241;SDS011;40156;51.080;17.082;2023-06-22T12:42:54;8.25;;;5.28;;
54241;SDS011;40156;51.080;17.082;2023-06-22T12:45:22;5.88;;;5.25;;
54241;SDS011;40156;51.080;17.082;2023-06-22T12:47:49;4.90;;;4.40;;
54241;SDS011;40156;51.080;17.082;2023-06-22T12:50:17;9.30;;;4.63;;
54241;SDS011;40156;51.080;17.082;2023-06-22T12:52:45;4.95;;;4.43;;
54241;SDS011;40156;51.080;17.082;2023-06-22T12:55:13;5.65;;;4.90;;
54241;SDS011;40156;51.080;17.082;2023-06-22T12:57:40;5.40;;;4.72;;
54241;SDS011;40156;51.080;17.082;2023-06-22T13:00:08;7.70;;;4.75;;
54241;SDS011;40156;51.080;17.082;2023-06-22T13:02:36;5.38;;;4.30;;
54241;SDS011;40156;51.080;17.082;2023-06-22T13:05:04;5.10;;;4.55;;
54241;SDS011;40156;51.080;17.082;2023-06-22T13:07:31;5.22;;;4.70;;
54241;SDS011;40156;51.080;17.082;2023-06-22T13:09:59;4.93;;;4.40;;
54241;SDS011;40156;51.080;17.082;2023-06-22T13:12:26;5.25;;;4.25;;
54241;SDS011;40156;51.080;17.082;2023-06-22T13:14:54;5.20;;;4.53;;
54241;SDS011;40156;51.080;17.082;2023-06-22T13:17:21;4.78;;;4.32;;
54241;SDS011;40156;51.080;17.082;2023-06-22T13:19:49;5.45;;;4.90;;
54241;SDS011;40156;51.080;17.082;2023-06-22T13:22:29;5.53;;;4.93;;
54241;SDS011;40156;51.080;17.082;2023-06-22T13:24:57;5.15;;;4.45;;
54241;SDS011;40156;51.080;17.082;2023-06-22T13:27:25;6.18;;;4.97;;
54241;SDS011;40156;51.080;17.082;2023-06-22T13:29:52;7.32;;;4.60;;
54241;SDS011;40156;51.080;17.082;2023-06-22T13:32:20;5.03;;;4.53;;
54241;SDS011;40156;51.080;17.082;2023-06-22T13:34:47;5.50;;;5.00;;
54241;SDS011;40156;51.080;17.082;2023-06-22T13:37:15;5.28;;;4.78;;
54241;SDS011;40156;51.080;17.082;2023-06-22T13:39:42;5.50;;;4.78;;
54241;SDS011;40156;51.080;17.082;2023-06-22T13:42:10;7.57;;;4.85;;
54241;SDS011;40156;51.080;17.082;2023-06-22T13:44:37;6.63;;;5.03;;
54241;SDS011;40156;51.080;17.082;2023-06-22T13:47:05;6.90;;;5.25;;
54241;SDS011;40156;51.080;17.082;2023-06-22T13:49:33;6.32;;;5.22;;
54241;SDS011;40156;51.080;17.082;2023-06-22T13:52:00;7.45;;;5.18;;
54241;SDS011;40156;51.080;17.082;2023-06-22T13:54:28;6.78;;;5.13;;
54241;SDS011;40156;51.080;17.082;2023-06-22T13:56:57;7.85;;;5.50;;
54241;SDS011;40156;51.080;17.082;2023-06-22T13:59:25;6.18;;;5.55;;
54241;SDS011;40156;51.080;17.082;2023-06-22T14:01:53;8.15;;;5.40;;
54241;SDS011;40156;51.080;17.082;2023-06-22T14:04:21;6.20;;;4.90;;
54241;SDS011;40156;51.080;17.082;2023-06-22T14:06:49;6.10;;;5.20;;
54241;SDS011;40156;51.080;17.082;2023-06-22T14:09:16;7.50;;;5.72;;
54241;SDS011;40156;51.080;17.082;2023-06-22T14:11:44;6.20;;;5.00;;
54241;SDS011;40156;51.080;17.082;2023-06-22T14:14:11;6.82;;;5.78;;
54241;SDS011;40156;51.080;17.082;2023-06-22T14:16:39;6.75;;;5.00;;
54241;SDS011;40156;51.080;17.082;2023-06-22T14:19:06;6.47;;;4.93;;
54241;SDS011;40156;51.080;17.082;2023-06-22T14:21:34;5.88;;;5.30;;
54241;SDS011;40156;51.080;17.082;2023-06-22T14:24:01;5.70;;;5.15;;
54241;SDS011;40156;51.080;17.082;2023-06-22T14:26:29;8.38;;;5.30;;
54241;SDS011;40156;51.080;17.082;2023-06-22T14:28:56;5.63;;;5.03;;
54241;SDS011;40156;51.080;17.082;2023-06-22T14:31:24;5.70;;;5.10;;
54241;SDS011;40156;51.080;17.082;2023-06-22T14:33:51;5.82;;;5.03;;
54241;SDS011;40156;51.080;17.082;2023-06-22T14:36:19;5.97;;;4.93;;